Time;durP1;ratioP1;P1;durP2;ratioP2;P2;SDS_P1;SDS_P2;PMS_P1;PMS_P2;Temp;Humidity;BMP_temperature;BMP_pressure;BME280_temperature;BME280_humidity;BME280_pressure;Samples;Min_cycle;Max_cycle;Signal;HPM_P1;HPM_P2
2023/07/14 00:00:40;;;;;;;13.00;12.00;;;14.30;80.00;;;;;;5104111;28;20034;-74
2023/07/14 00:03:06;;;;;;;13.10;12.10;;;14.20;79.70;;;;;;5104986;28;20084;-74
2023/07/14 00:05:39;;;;;;;12.77;11.77;;;14.20;80.60;;;;;;5104899;28;20038;-74
2023/07/14 00:08:15;;;;;;;12.50;11.70;;;14.10;80.60;;;;;;5104317;28;20031;-74
2023/07/14 00:10:40;;;;;;;13.73;12.80;;;14.00;80.80;;;;;;5104413;28;20027;-74
2023/07/14 00:13:09;;;;;;;13.57;12.77;;;14.00;80.60;;;;;;5107074;28;20019;-75
2023/07/14 00:15:39;;;;;;;14.00;13.07;;;14.00;81.40;;;;;;5106500;28;20032;-74
2023/07/14 00:18:22;;;;;;;13.70;12.80;;;14.00;81.90;;;;;;5106833;28;20034;-74
2023/07/14 00:20:48;;;;;;;13.13;12.20;;;13.90;81.80;;;;;;5106330;28;20035;-74
2023/07/14 00:23:15;;;;;;;13.20;12.45;;;14.00;80.90;;;;;;5104359;28;20043;-75
2023/07/14 00:25:42;;;;;;;13.43;12.52;;;13.90;81.60;;;;;;5103930;28;20094;-75
2023/07/14 00:28:15;;;;;;;13.65;12.65;;;13.90;81.80;;;;;;5107096;28;20028;-74
2023/07/14 00:30:41;;;;;;;14.27;13.15;;;13.80;82.10;;;;;;5105534;28;20473;-74
2023/07/14 00:33:18;;;;;;;15.93;14.68;;;13.70;82.20;;;;;;5106265;28;20032;-74
2023/07/14 00:35:45;;;;;;;14.20;13.43;;;13.70;83.40;;;;;;5105145;28;20144;-74
2023/07/14 00:38:11;;;;;;;15.02;14.13;;;13.70;82.60;;;;;;5104417;28;20039;-74
2023/07/14 00:40:41;;;;;;;14.00;12.93;;;13.60;83.30;;;;;;5103578;28;20052;-74
2023/07/14 00:43:24;;;;;;;13.68;12.85;;;13.70;82.60;;;;;;5105070;28;20395;-74
2023/07/14 00:45:52;;;;;;;13.82;12.82;;;13.70;82.60;;;;;;5102380;28;20098;-75
2023/07/14 00:48:24;;;;;;;13.95;12.95;;;13.70;82.70;;;;;;5106111;28;20051;-74
2023/07/14 00:51:00;;;;;;;14.60;13.50;;;13.70;81.80;;;;;;5106068;28;20117;-75
2023/07/14 00:53:33;;;;;;;15.52;14.20;;;13.60;82.60;;;;;;5103749;28;20059;-74
2023/07/14 00:56:08;;;;;;;14.43;13.50;;;13.60;82.70;;;;;;5103944;28;20022;-75
2023/07/14 00:58:34;;;;;;;14.55;13.75;;;13.60;82.10;;;;;;5104285;28;20115;-75
2023/07/14 01:01:10;;;;;;;13.85;13.05;;;13.50;82.40;;;;;;5104575;28;20081;-74
2023/07/14 01:03:44;;;;;;;14.45;13.45;;;13.60;82.20;;;;;;5106505;27;20390;-74
2023/07/14 01:06:19;;;;;;;14.13;13.23;;;13.50;81.50;;;;;;5091318;28;20067;-75
2023/07/14 01:08:53;;;;;;;14.20;13.10;;;13.50;81.60;;;;;;5107500;28;21440;-74
2023/07/14 01:11:25;;;;;;;14.60;13.55;;;13.40;81.70;;;;;;5111284;28;20114;-74
2023/07/14 01:13:51;;;;;;;14.32;13.15;;;13.40;81.90;;;;;;5090806;28;20509;-74
2023/07/14 01:16:18;;;;;;;14.57;12.98;;;13.30;82.10;;;;;;5109443;28;20027;-74
2023/07/14 01:18:45;;;;;;;15.00;13.73;;;13.30;82.80;;;;;;5106976;28;20040;-74
2023/07/14 01:21:11;;;;;;;14.48;13.23;;;13.10;83.30;;;;;;5075788;28;20096;-74
2023/07/14 01:24:00;;;;;;;13.32;12.45;;;13.00;83.60;;;;;;5107469;28;20032;-74
2023/07/14 01:26:44;;;;;;;14.35;13.27;;;13.00;83.60;;;;;;5104602;28;20085;-74
2023/07/14 01:29:10;;;;;;;14.20;13.27;;;13.10;83.20;;;;;;5106677;28;20119;-74
2023/07/14 01:31:36;;;;;;;15.18;14.18;;;13.10;83.80;;;;;;5108803;28;20091;-74
2023/07/14 01:34:02;;;;;;;15.43;14.32;;;13.00;83.80;;;;;;5109881;28;20565;-74
2023/07/14 01:36:28;;;;;;;15.23;14.13;;;13.00;84.30;;;;;;5106375;28;20036;-75
2023/07/14 01:38:54;;;;;;;14.77;13.68;;;13.00;84.60;;;;;;5109348;28;20023;-74
2023/07/14 01:41:20;;;;;;;14.52;13.40;;;13.10;83.30;;;;;;5088748;28;20489;-74
2023/07/14 01:43:47;;;;;;;14.90;13.88;;;13.10;83.50;;;;;;5110531;28;20028;-74
2023/07/14 01:46:19;;;;;;;14.73;13.63;;;13.00;84.50;;;;;;5108913;28;20024;-75
2023/07/14 01:48:59;;;;;;;14.50;13.40;;;13.00;84.90;;;;;;5089311;28;20471;-74
2023/07/14 01:51:29;;;;;;;15.05;13.95;;;12.90;84.80;;;;;;5109579;28;20027;-74
2023/07/14 01:54:13;;;;;;;14.93;13.57;;;12.70;84.90;;;;;;5109207;28;20028;-74
2023/07/14 01:56:40;;;;;;;14.23;13.02;;;12.80;85.10;;;;;;5088769;28;20022;-74
2023/07/14 01:59:13;;;;;;;14.85;13.75;;;12.80;85.30;;;;;;5108383;28;20035;-75
2023/07/14 02:01:41;;;;;;;14.48;13.35;;;12.70;85.60;;;;;;5107588;28;20485;-74
2023/07/14 02:04:17;;;;;;;15.88;14.60;;;12.60;85.20;;;;;;5107958;28;20477;-75
2023/07/14 02:06:43;;;;;;;13.52;12.48;;;12.70;84.60;;;;;;5108728;28;20027;-74
2023/07/14 02:09:17;;;;;;;14.27;13.25;;;12.70;84.70;;;;;;5107028;28;20032;-74
2023/07/14 02:11:44;;;;;;;14.02;12.65;;;12.60;85.50;;;;;;5109309;28;20762;-74
2023/07/14 02:14:16;;;;;;;14.40;12.98;;;12.60;85.60;;;;;;5107513;28;20034;-74
2023/07/14 02:16:44;;;;;;;16.95;12.77;;;12.60;85.70;;;;;;5109336;28;20028;-74
2023/07/14 02:19:22;;;;;;;13.73;12.73;;;12.50;85.60;;;;;;5109682;28;20043;-73
2023/07/14 02:21:49;;;;;;;13.35;12.45;;;12.50;85.70;;;;;;5106833;28;20036;-74
2023/07/14 02:24:20;;;;;;;13.00;11.93;;;12.40;85.80;;;;;;5106549;28;20039;-74
2023/07/14 02:26:52;;;;;;;13.82;12.43;;;12.30;86.00;;;;;;5108292;28;20020;-75
2023/07/14 02:29:18;;;;;;;12.35;11.50;;;12.30;86.90;;;;;;5106400;27;20517;-74
2023/07/14 02:31:52;;;;;;;13.98;12.88;;;12.30;86.70;;;;;;5087035;28;20035;-73
2023/07/14 02:34:18;;;;;;;13.40;12.15;;;12.20;87.10;;;;;;5107430;28;20028;-74
2023/07/14 02:37:39;;;;;;;14.13;12.90;;;12.20;87.00;;;;;;5104126;28;20051;-74
2023/07/14 02:40:07;;;;;;;13.55;12.55;;;12.20;86.80;;;;;;5108366;27;20035;-74
2023/07/14 02:42:40;;;;;;;13.27;12.38;;;12.30;87.10;;;;;;5102103;28;20034;-74
2023/07/14 02:45:06;;;;;;;13.93;12.82;;;12.30;86.50;;;;;;5108017;27;20381;-74
2023/07/14 02:47:36;;;;;;;14.15;12.98;;;12.30;85.60;;;;;;5086943;28;20046;-74
2023/07/14 02:50:02;;;;;;;13.43;12.55;;;12.20;86.00;;;;;;5102319;28;20020;-74
2023/07/14 02:52:28;;;;;;;13.60;12.60;;;12.30;86.60;;;;;;5074463;28;20036;-75
2023/07/14 02:54:54;;;;;;;14.38;13.38;;;12.40;85.20;;;;;;5100292;28;20028;-74
2023/07/14 02:57:20;;;;;;;14.43;13.23;;;12.30;84.50;;;;;;5087056;28;20031;-75
2023/07/14 02:59:45;;;;;;;14.90;13.57;;;12.30;85.30;;;;;;5106534;27;20111;-74
2023/07/14 03:02:11;;;;;;;13.85;12.90;;;12.30;86.10;;;;;;5107734;27;20032;-73
2023/07/14 03:04:36;;;;;;;14.57;13.27;;;12.30;85.90;;;;;;5100943;28;20028;-75
2023/07/14 03:07:03;;;;;;;14.95;13.80;;;12.30;85.90;;;;;;5106559;28;20560;-74
2023/07/14 03:09:28;;;;;;;13.90;13.00;;;12.20;86.20;;;;;;5106470;28;20100;-74
2023/07/14 03:11:54;;;;;;;14.27;13.13;;;12.30;86.20;;;;;;5105349;28;20386;-74
2023/07/14 03:14:19;;;;;;;14.38;13.15;;;12.20;85.90;;;;;;5109757;27;20521;-74
2023/07/14 03:16:45;;;;;;;14.38;13.00;;;12.20;86.80;;;;;;5103728;28;20059;-75
2023/07/14 03:19:11;;;;;;;15.38;13.60;;;12.10;86.40;;;;;;5108754;28;20118;-74
2023/07/14 03:21:37;;;;;;;14.13;12.75;;;12.00;86.60;;;;;;5087420;28;20028;-74
2023/07/14 03:24:03;;;;;;;14.70;13.70;;;12.00;86.80;;;;;;5106108;28;20031;-74
2023/07/14 03:26:28;;;;;;;16.02;14.50;;;11.90;86.90;;;;;;5107010;28;20512;-75
2023/07/14 03:28:54;;;;;;;15.13;13.70;;;12.00;87.70;;;;;;5085399;28;20042;-74
2023/07/14 03:31:19;;;;;;;13.80;12.68;;;12.00;87.70;;;;;;5087689;28;20027;-73
2023/07/14 03:33:45;;;;;;;14.57;13.23;;;12.00;87.60;;;;;;5088362;28;20028;-74
2023/07/14 03:36:13;;;;;;;14.00;12.85;;;11.80;86.80;;;;;;5066806;28;20047;-74
2023/07/14 03:38:41;;;;;;;14.60;13.48;;;11.80;87.20;;;;;;5106653;28;20480;-73
2023/07/14 03:41:07;;;;;;;14.20;13.10;;;11.70;87.30;;;;;;5087457;28;20038;-74
2023/07/14 03:43:32;;;;;;;18.90;13.20;;;11.80;87.00;;;;;;5102006;28;20484;-74
2023/07/14 03:45:58;;;;;;;14.10;12.80;;;11.80;86.60;;;;;;5099996;27;20136;-74
2023/07/14 03:48:24;;;;;;;13.85;12.85;;;11.80;86.60;;;;;;5105944;28;20615;-74
2023/07/14 03:50:49;;;;;;;16.08;13.63;;;11.80;87.10;;;;;;5105890;28;20657;-74
2023/07/14 03:53:16;;;;;;;14.52;13.05;;;11.80;87.50;;;;;;5087626;28;20028;-74
2023/07/14 03:55:42;;;;;;;15.85;13.32;;;11.80;87.10;;;;;;5103744;28;20027;-74
2023/07/14 03:58:08;;;;;;;13.98;12.73;;;11.90;87.70;;;;;;5107491;28;21713;-74
2023/07/14 04:00:33;;;;;;;14.27;13.27;;;12.00;86.20;;;;;;5106077;28;20065;-74
2023/07/14 04:02:59;;;;;;;15.63;14.32;;;12.00;85.70;;;;;;5089923;28;20051;-74
2023/07/14 04:05:25;;;;;;;16.17;14.25;;;12.10;86.60;;;;;;5104295;28;20401;-74
2023/07/14 04:07:51;;;;;;;15.98;14.75;;;12.10;86.60;;;;;;5104202;28;20042;-74
2023/07/14 04:10:18;;;;;;;17.08;15.45;;;12.20;86.30;;;;;;5107155;28;20493;-73
2023/07/14 04:12:47;;;;;;;19.52;17.83;;;12.20;86.30;;;;;;5104082;28;20031;-74
2023/07/14 04:15:13;;;;;;;18.38;17.20;;;12.30;87.00;;;;;;5104792;28;20117;-74
2023/07/14 04:17:39;;;;;;;18.42;17.30;;;12.40;87.30;;;;;;5106000;28;20166;-74
2023/07/14 04:20:05;;;;;;;17.17;15.45;;;12.40;87.10;;;;;;5086524;28;20111;-74
2023/07/14 04:22:31;;;;;;;19.38;17.83;;;12.50;86.90;;;;;;5105352;28;20043;-73
2023/07/14 04:24:58;;;;;;;17.77;16.42;;;12.50;86.70;;;;;;5104485;28;20032;-74
2023/07/14 04:27:25;;;;;;;23.52;20.90;;;12.60;86.90;;;;;;5107862;28;20031;-75
2023/07/14 04:29:50;;;;;;;18.52;15.65;;;12.60;87.40;;;;;;5106752;28;20189;-73
2023/07/14 04:32:16;;;;;;;17.35;14.38;;;12.70;87.10;;;;;;5089992;28;20525;-74
2023/07/14 04:34:42;;;;;;;19.70;17.88;;;12.70;86.70;;;;;;5108508;28;20109;-75
2023/07/14 04:37:09;;;;;;;19.90;18.13;;;12.80;87.00;;;;;;5110071;27;20039;-74
2023/07/14 04:39:35;;;;;;;22.35;20.63;;;13.00;87.40;;;;;;5109707;28;20043;-74
2023/07/14 04:42:01;;;;;;;22.13;20.10;;;13.00;87.10;;;;;;5106279;28;20578;-74
2023/07/14 04:44:27;;;;;;;17.60;15.75;;;13.10;87.40;;;;;;5112106;27;20162;-75
2023/07/14 04:46:53;;;;;;;16.08;14.98;;;13.30;85.90;;;;;;5090638;28;20031;-75
2023/07/14 04:49:18;;;;;;;18.98;17.27;;;13.40;85.30;;;;;;5111531;27;20042;-74
2023/07/14 04:51:44;;;;;;;16.95;15.45;;;13.60;85.40;;;;;;5106703;28;20023;-74
2023/07/14 04:54:10;;;;;;;16.10;14.70;;;13.60;85.10;;;;;;5105338;28;20128;-74
2023/07/14 04:56:37;;;;;;;16.50;15.20;;;13.60;84.70;;;;;;5088214;28;20499;-75
2023/07/14 04:59:04;;;;;;;16.35;14.90;;;13.70;84.40;;;;;;5108485;27;20386;-74
2023/07/14 05:01:31;;;;;;;18.52;15.98;;;13.70;84.20;;;;;;5108633;28;20036;-74
2023/07/14 05:03:57;;;;;;;20.52;18.83;;;13.80;85.10;;;;;;5091129;28;20036;-75
2023/07/14 05:06:22;;;;;;;21.27;19.77;;;13.90;85.40;;;;;;5100492;27;20034;-75
2023/07/14 05:08:48;;;;;;;18.65;17.40;;;14.00;85.50;;;;;;5108787;28;20046;-75
2023/07/14 05:11:14;;;;;;;23.38;21.95;;;14.00;85.30;;;;;;5108410;28;20024;-74
2023/07/14 05:13:40;;;;;;;20.67;19.33;;;14.20;85.90;;;;;;5109455;28;20027;-77
2023/07/14 05:16:05;;;;;;;18.67;17.35;;;14.30;85.60;;;;;;5107348;28;20028;-77
2023/07/14 05:18:31;;;;;;;17.38;16.05;;;14.50;84.00;;;;;;5106655;28;20504;-76
2023/07/14 05:21:01;;;;;;;24.58;22.80;;;14.60;83.20;;;;;;5106273;28;20119;-75
2023/07/14 05:23:28;;;;;;;25.90;24.20;;;14.70;84.00;;;;;;5104572;28;20027;-75
2023/07/14 05:25:55;;;;;;;21.13;19.50;;;14.80;84.50;;;;;;5109157;27;20570;-76
2023/07/14 05:28:21;;;;;;;20.83;19.33;;;14.80;84.10;;;;;;5109478;27;20401;-76
2023/07/14 05:30:48;;;;;;;24.40;22.80;;;15.00;83.50;;;;;;5110469;28;20032;-81
2023/07/14 05:33:16;;;;;;;20.38;18.70;;;15.00;84.40;;;;;;5089306;28;20020;-72
2023/07/14 05:35:42;;;;;;;18.42;17.15;;;15.10;82.80;;;;;;5105728;28;20033;-74
2023/07/14 05:38:08;;;;;;;18.38;17.05;;;15.20;82.30;;;;;;5109516;28;20569;-73
2023/07/14 05:40:33;;;;;;;20.05;18.73;;;15.40;82.20;;;;;;5108060;28;20035;-75
2023/07/14 05:42:59;;;;;;;18.85;17.05;;;15.30;82.70;;;;;;5110735;27;20729;-70
2023/07/14 05:45:25;;;;;;;18.67;17.20;;;15.30;82.00;;;;;;5103939;28;20061;-70
2023/07/14 05:47:51;;;;;;;19.50;17.85;;;15.30;81.40;;;;;;5108687;28;20050;-70
2023/07/14 05:50:17;;;;;;;18.90;17.65;;;15.40;79.50;;;;;;5106831;28;20114;-71
2023/07/14 05:52:43;;;;;;;19.48;17.77;;;15.40;80.50;;;;;;5109851;28;20028;-70
2023/07/14 05:55:10;;;;;;;19.52;17.75;;;15.50;80.20;;;;;;5088846;28;20035;-71
2023/07/14 05:57:36;;;;;;;20.17;18.20;;;15.60;79.60;;;;;;5103178;28;20088;-71
2023/07/14 06:00:11;;;;;;;19.52;18.10;;;15.70;79.40;;;;;;5102002;28;20032;-70
2023/07/14 06:02:37;;;;;;;20.25;18.60;;;15.80;80.00;;;;;;5106737;28;20112;-71
2023/07/14 06:05:03;;;;;;;20.17;18.58;;;15.90;80.40;;;;;;5106698;28;20074;-71
2023/07/14 06:07:31;;;;;;;20.33;18.25;;;16.10;77.50;;;;;;5103766;28;20047;-71
2023/07/14 06:09:57;;;;;;;20.50;18.50;;;16.20;78.10;;;;;;5106326;28;20141;-70
2023/07/14 06:12:26;;;;;;;19.02;17.70;;;16.20;77.80;;;;;;5106860;27;20477;-70
2023/07/14 06:14:51;;;;;;;19.70;18.00;;;16.30;77.20;;;;;;5104038;28;20028;-70
2023/07/14 06:17:17;;;;;;;18.40;17.20;;;16.20;78.90;;;;;;5103759;28;20034;-70
2023/07/14 06:19:43;;;;;;;18.48;16.90;;;16.40;76.90;;;;;;5105355;28;20031;-70
2023/07/14 06:22:08;;;;;;;18.42;17.02;;;16.40;78.60;;;;;;5102687;28;20038;-71
2023/07/14 06:24:35;;;;;;;18.80;17.50;;;16.60;77.90;;;;;;5106910;28;20394;-71
2023/07/14 06:27:02;;;;;;;16.15;15.02;;;16.80;75.90;;;;;;5103201;28;20127;-71
2023/07/14 06:29:28;;;;;;;17.85;16.10;;;17.00;73.20;;;;;;5106759;28;20394;-71
2023/07/14 06:31:53;;;;;;;17.38;16.08;;;17.10;72.30;;;;;;5104066;28;20028;-71
2023/07/14 06:34:19;;;;;;;16.77;15.55;;;17.30;72.60;;;;;;5090499;28;20027;-71
2023/07/14 06:36:45;;;;;;;17.00;15.90;;;17.50;70.30;;;;;;5100590;28;20122;-71
2023/07/14 06:39:12;;;;;;;17.40;16.05;;;17.50;71.40;;;;;;5104546;28;20073;-71
2023/07/14 06:41:38;;;;;;;15.80;14.55;;;17.60;73.10;;;;;;5105476;28;20032;-71
2023/07/14 06:44:03;;;;;;;16.67;15.38;;;17.40;71.60;;;;;;5102219;28;20093;-71
2023/07/14 06:46:31;;;;;;;15.88;14.70;;;17.20;74.00;;;;;;5104125;28;20041;-71
2023/07/14 06:48:57;;;;;;;15.00;13.98;;;17.20;71.80;;;;;;5102987;28;20101;-71
2023/07/14 06:51:24;;;;;;;15.43;14.27;;;17.60;69.80;;;;;;5106373;28;20028;-70
2023/07/14 06:53:50;;;;;;;15.45;14.25;;;17.80;69.10;;;;;;5084211;28;20035;-71
2023/07/14 06:56:16;;;;;;;15.57;14.18;;;17.60;68.90;;;;;;5103217;28;20035;-71
2023/07/14 06:58:42;;;;;;;16.08;15.00;;;17.50;70.20;;;;;;5106725;28;20040;-71
2023/07/14 07:01:07;;;;;;;15.50;14.30;;;17.50;72.10;;;;;;5104897;28;20482;-71
2023/07/14 07:03:34;;;;;;;16.17;15.10;;;17.70;71.20;;;;;;5105743;28;20470;-71
2023/07/14 07:06:00;;;;;;;16.88;15.48;;;17.70;71.10;;;;;;5106877;28;20043;-71
2023/07/14 07:08:26;;;;;;;17.20;15.63;;;17.90;71.90;;;;;;5104624;28;20035;-71
2023/07/14 07:10:52;;;;;;;18.23;16.85;;;18.00;71.10;;;;;;5106751;28;20023;-71
2023/07/14 07:13:18;;;;;;;18.02;16.73;;;18.30;72.80;;;;;;5103509;28;20028;-70
2023/07/14 07:15:44;;;;;;;17.52;16.23;;;18.60;70.90;;;;;;5106002;28;20031;-70
2023/07/14 07:18:10;;;;;;;17.02;15.82;;;18.80;69.80;;;;;;5114770;28;20044;-67
2023/07/14 07:20:38;;;;;;;16.70;15.52;;;19.00;69.90;;;;;;5113535;28;20130;-67
2023/07/14 07:23:04;;;;;;;16.40;15.30;;;19.30;68.80;;;;;;5115560;28;20061;-68
2023/07/14 07:25:29;;;;;;;15.05;13.68;;;19.30;69.10;;;;;;5097560;28;20036;-68
2023/07/14 07:27:55;;;;;;;15.40;14.40;;;19.50;66.20;;;;;;5107012;28;20039;-70
2023/07/14 07:30:20;;;;;;;16.30;14.95;;;19.60;65.90;;;;;;5107855;28;20032;-69
2023/07/14 07:32:46;;;;;;;15.23;14.13;;;19.70;67.60;;;;;;5106150;28;20118;-68
2023/07/14 07:35:13;;;;;;;15.80;14.48;;;19.70;65.30;;;;;;5106687;28;20059;-68
2023/07/14 07:37:39;;;;;;;15.30;14.05;;;19.70;65.10;;;;;;5101960;28;20095;-68
2023/07/14 07:40:06;;;;;;;15.60;14.30;;;19.70;64.10;;;;;;5100914;28;20503;-68
2023/07/14 07:42:34;;;;;;;16.55;15.20;;;19.50;66.00;;;;;;5107387;27;20040;-68
2023/07/14 07:45:00;;;;;;;16.23;14.95;;;19.50;68.60;;;;;;5104327;28;20448;-69
2023/07/14 07:47:26;;;;;;;16.90;15.80;;;19.90;68.00;;;;;;5103765;28;20048;-68
2023/07/14 07:49:52;;;;;;;16.52;14.88;;;19.90;67.60;;;;;;5101499;28;20020;-68
2023/07/14 07:52:19;;;;;;;17.85;16.50;;;19.90;66.20;;;;;;5102085;28;20028;-68
2023/07/14 07:54:45;;;;;;;16.23;15.13;;;20.20;66.90;;;;;;5102988;28;20074;-69
2023/07/14 07:57:10;;;;;;;17.38;15.88;;;20.40;67.10;;;;;;5103544;28;20552;-69
2023/07/14 07:59:37;;;;;;;15.75;14.52;;;20.50;67.10;;;;;;5106884;28;20071;-68
2023/07/14 08:02:03;;;;;;;15.63;14.38;;;20.50;65.30;;;;;;5107725;28;20619;-68
2023/07/14 08:04:28;;;;;;;15.23;13.70;;;20.70;66.10;;;;;;5103113;28;20040;-69
2023/07/14 08:06:54;;;;;;;14.95;13.82;;;20.70;63.60;;;;;;5102945;28;20039;-68
2023/07/14 08:09:20;;;;;;;17.27;15.77;;;20.70;62.40;;;;;;5109512;28;20130;-68
2023/07/14 08:11:47;;;;;;;14.65;13.70;;;20.80;66.60;;;;;;5108597;28;20119;-68
2023/07/14 08:14:18;;;;;;;14.68;13.68;;;21.10;60.80;;;;;;5106145;28;20087;-68
2023/07/14 08:16:44;;;;;;;15.32;14.00;;;21.30;60.00;;;;;;5109298;28;20034;-69
2023/07/14 08:19:10;;;;;;;18.30;12.95;;;21.60;60.10;;;;;;5108279;28;20517;-68
2023/07/14 08:21:37;;;;;;;13.65;12.85;;;21.50;59.00;;;;;;5106672;28;20036;-68
2023/07/14 08:24:05;;;;;;;14.20;13.00;;;21.90;58.50;;;;;;5110048;28;20118;-68
2023/07/14 08:26:35;;;;;;;13.35;12.00;;;22.10;58.00;;;;;;5112002;28;20127;-68
2023/07/14 08:29:01;;;;;;;;;;;22.00;55.70;;;;;;5109435;28;20035;-69
2023/07/14 08:31:27;;;;;;;13.05;11.95;;;22.20;56.60;;;;;;5110261;28;20297;-69
2023/07/14 08:33:53;;;;;;;13.13;12.13;;;22.50;55.60;;;;;;5105464;28;20069;-68
2023/07/14 08:36:18;;;;;;;14.05;12.95;;;22.80;57.20;;;;;;5109727;28;20020;-68
2023/07/14 08:38:44;;;;;;;13.85;12.93;;;22.90;53.80;;;;;;5107812;28;20034;-68
2023/07/14 08:41:33;;;;;;;14.02;13.13;;;23.20;55.00;;;;;;5089755;28;20323;-68
2023/07/14 08:44:15;;;;;;;13.95;12.88;;;23.70;50.80;;;;;;5109662;28;20461;-69
2023/07/14 08:47:01;;;;;;;14.25;13.45;;;23.80;56.20;;;;;;5109345;27;20027;-69
2023/07/14 08:49:30;;;;;;;17.77;16.75;;;23.90;48.70;;;;;;5108810;28;20038;-68
2023/07/14 08:52:17;;;;;;;17.33;16.08;;;23.80;50.20;;;;;;5106315;28;20505;-69
2023/07/14 08:54:51;;;;;;;14.35;13.57;;;24.50;48.50;;;;;;5108789;28;20517;-69
2023/07/14 08:57:21;;;;;;;15.75;14.43;;;24.20;46.30;;;;;;5103476;28;20028;-69
2023/07/14 08:59:48;;;;;;;15.82;14.93;;;24.50;46.10;;;;;;5104703;28;20031;-69
2023/07/14 09:02:53;;;;;;;15.38;14.40;;;24.70;48.90;;;;;;5103908;28;20042;-69
2023/07/14 09:05:27;;;;;;;16.65;15.75;;;24.80;45.20;;;;;;5060633;28;20043;-69
2023/07/14 09:07:54;;;;;;;22.35;21.25;;;24.70;48.50;;;;;;5107094;28;20093;-68
2023/07/14 09:10:38;;;;;;;18.58;17.42;;;24.70;43.00;;;;;;5106140;28;20039;-68
2023/07/14 09:13:14;;;;;;;21.55;20.45;;;24.60;45.80;;;;;;5104813;28;20078;-69
2023/07/14 09:15:41;;;;;;;22.63;21.42;;;24.80;45.00;;;;;;5090689;28;20031;-69
2023/07/14 09:18:16;;;;;;;23.27;22.27;;;24.70;45.10;;;;;;5110350;28;20046;-69
2023/07/14 09:20:49;;;;;;;23.92;22.85;;;24.80;45.10;;;;;;5106417;28;20035;-69
2023/07/14 09:23:40;;;;;;;36.80;35.15;;;25.60;43.00;;;;;;5106281;28;20059;-69
2023/07/14 09:26:16;;;;;;;36.13;34.33;;;25.60;43.60;;;;;;5109332;28;20047;-69
2023/07/14 09:28:46;;;;;;;45.53;43.72;;;25.30;42.40;;;;;;5104311;28;21313;-68
2023/07/14 09:31:44;;;;;;;35.35;33.65;;;25.40;42.10;;;;;;5105513;28;20144;-69
2023/07/14 09:34:32;;;;;;;32.08;30.73;;;25.50;41.00;;;;;;5103409;28;20039;-68
2023/07/14 09:36:58;;;;;;;42.83;41.00;;;25.90;39.00;;;;;;5107441;28;20043;-69
2023/07/14 09:39:33;;;;;;;46.88;44.90;;;25.90;44.20;;;;;;5107549;28;20092;-69
2023/07/14 09:42:02;;;;;;;58.10;55.78;;;25.50;41.00;;;;;;5107350;28;20023;-69
2023/07/14 09:44:29;;;;;;;96.15;92.63;;;25.30;41.10;;;;;;5092102;28;20127;-71
2023/07/14 09:46:55;;;;;;;113.57;109.28;;;25.60;40.70;;;;;;5091200;28;20459;-69
2023/07/14 09:49:24;;;;;;;89.72;86.45;;;26.40;39.40;;;;;;5109206;28;20081;-69
2023/07/14 09:52:27;;;;;;;47.67;45.70;;;26.30;38.80;;;;;;5104276;28;20027;-71
2023/07/14 09:54:58;;;;;;;49.78;47.13;;;26.00;43.20;;;;;;5104551;28;20042;-71
2023/07/14 09:57:28;;;;;;;39.75;37.97;;;26.30;42.90;;;;;;5104399;28;20039;-72
2023/07/14 10:00:16;;;;;;;55.10;52.90;;;26.30;37.50;;;;;;5107600;28;20023;-71
2023/07/14 10:02:41;;;;;;;64.18;61.63;;;26.00;41.40;;;;;;5108879;28;20055;-72
2023/07/14 10:05:30;;;;;;;50.53;48.20;;;26.40;40.50;;;;;;5104521;28;20066;-72
2023/07/14 10:07:56;;;;;;;72.73;69.87;;;26.20;37.30;;;;;;5100182;28;20020;-71
2023/07/14 10:10:26;;;;;;;81.72;78.53;;;26.30;38.70;;;;;;5106548;28;20508;-71
2023/07/14 10:12:53;;;;;;;76.65;73.80;;;27.00;38.60;;;;;;5089746;28;20505;-72
2023/07/14 10:15:32;;;;;;;61.03;57.92;;;27.30;39.50;;;;;;5108131;28;20039;-71
2023/07/14 10:18:12;;;;;;;55.63;53.47;;;27.10;42.10;;;;;;5106591;28;20618;-72
2023/07/14 10:20:39;;;;;;;73.45;70.55;;;27.60;39.80;;;;;;5104512;28;20054;-69
2023/07/14 10:23:13;;;;;;;75.75;72.97;;;27.50;38.70;;;;;;5100383;28;20032;-69
2023/07/14 10:25:40;;;;;;;80.65;77.10;;;28.00;38.40;;;;;;5106027;27;20427;-71
2023/07/14 10:28:15;;;;;;;79.45;76.45;;;28.00;35.20;;;;;;5107122;28;20076;-71
2023/07/14 10:30:53;;;;;;;176.95;170.60;;;28.00;36.60;;;;;;5087675;28;20016;-71
2023/07/14 10:33:54;;;;;;;253.80;244.93;;;27.60;36.20;;;;;;5107473;28;20034;-71
2023/07/14 10:36:34;;;;;;;228.60;220.50;;;27.50;35.50;;;;;;5091016;28;20089;-71
2023/07/14 10:39:16;;;;;;;272.13;262.33;;;27.30;36.60;;;;;;5105239;28;20123;-73
2023/07/14 10:41:45;;;;;;;197.35;190.55;;;27.20;34.20;;;;;;5102906;28;20550;-71
2023/07/14 10:44:25;;;;;;;212.35;204.82;;;27.00;35.80;;;;;;5097886;28;20732;-71
2023/07/14 10:46:54;;;;;;;273.13;263.40;;;26.90;36.40;;;;;;5103283;28;20039;-71
2023/07/14 10:49:20;;;;;;;212.77;205.05;;;27.00;35.60;;;;;;5105410;28;20032;-71
2023/07/14 10:51:49;;;;;;;249.80;241.02;;;27.30;39.30;;;;;;5104715;28;20035;-71
2023/07/14 10:54:16;;;;;;;158.00;152.27;;;27.50;35.60;;;;;;5098780;28;20042;-71
2023/07/14 10:56:51;;;;;;;359.88;346.30;;;27.70;34.80;;;;;;5105316;28;20102;-70
2023/07/14 10:59:31;;;;;;;371.63;357.45;;;28.00;33.20;;;;;;5102228;28;20039;-71
2023/07/14 11:02:17;;;;;;;;;;;27.20;35.70;;;;;;5103350;28;20036;-71
2023/07/14 11:05:03;;;;;;;352.60;339.23;;;27.20;34.30;;;;;;5100806;28;19923;-76
2023/07/14 11:07:32;;;;;;;354.35;341.08;;;27.00;34.00;;;;;;5085680;28;20030;-76
2023/07/14 11:09:59;;;;;;;362.88;348.73;;;27.70;34.20;;;;;;5104916;28;20733;-75
2023/07/14 11:12:24;;;;;;;381.88;366.98;;;28.00;33.80;;;;;;5104121;28;20105;-75
2023/07/14 11:15:02;;;;;;;1999.90;999.90;;;27.90;33.10;;;;;;5106106;28;20020;-75
2023/07/14 11:18:02;;;;;;;290.98;279.65;;;29.00;34.00;;;;;;5105774;28;20456;-75
2023/07/14 11:20:33;;;;;;;1999.90;999.90;;;29.10;34.60;;;;;;5079053;28;20046;-75
2023/07/14 11:23:35;;;;;;;1999.90;999.90;;;30.20;30.20;;;;;;5108965;28;20058;-76
2023/07/14 11:26:24;;;;;;;1999.90;999.90;;;28.80;31.50;;;;;;5082636;28;20035;-75
2023/07/14 11:29:11;;;;;;;1999.90;999.90;;;29.90;30.80;;;;;;5098486;28;20118;-76
2023/07/14 11:31:55;;;;;;;1999.90;999.90;;;30.30;31.20;;;;;;5098885;28;20042;-75
2023/07/14 11:34:32;;;;;;;1999.90;999.90;;;29.00;28.90;;;;;;5103360;28;20478;-76
2023/07/14 11:37:11;;;;;;;1999.90;999.90;;;30.00;30.70;;;;;;5105576;28;20479;-75
2023/07/14 11:39:51;;;;;;;1999.90;999.90;;;30.80;30.40;;;;;;5096488;28;20034;-75
2023/07/14 11:42:25;;;;;;;1999.90;999.90;;;30.00;30.70;;;;;;5101127;28;20173;-76
2023/07/14 11:44:54;;;;;;;1999.90;999.90;;;29.80;29.60;;;;;;5104707;28;20036;-76
2023/07/14 11:47:35;;;;;;;1999.90;999.90;;;29.50;26.80;;;;;;5106669;28;20035;-76
2023/07/14 11:50:08;;;;;;;1999.90;999.90;;;31.30;28.90;;;;;;5104093;28;20036;-76
2023/07/14 11:52:42;;;;;;;1999.90;999.90;;;32.40;24.50;;;;;;5106636;27;20020;-76
2023/07/14 11:55:19;;;;;;;1999.90;999.90;;;30.50;26.30;;;;;;5104989;28;20026;-76
2023/07/14 11:57:49;;;;;;;1999.90;999.90;;;31.00;26.50;;;;;;5102350;28;20028;-77
2023/07/14 12:00:26;;;;;;;1999.90;999.90;;;31.90;24.20;;;;;;5103290;28;20032;-77
2023/07/14 12:03:02;;;;;;;1999.90;999.90;;;30.30;26.80;;;;;;5101848;28;20051;-77
2023/07/14 12:05:30;;;;;;;1999.90;999.90;;;29.80;30.00;;;;;;5096084;28;20123;-77
2023/07/14 12:08:08;;;;;;;1999.90;999.90;;;30.10;27.60;;;;;;5098176;28;20043;-76
2023/07/14 12:10:43;;;;;;;1999.90;999.90;;;29.40;27.10;;;;;;5083426;28;20044;-77
2023/07/14 12:13:26;;;;;;;1999.90;999.90;;;30.30;30.20;;;;;;5098676;28;20027;-76
2023/07/14 12:15:55;;;;;;;1999.90;999.90;;;30.70;27.10;;;;;;5101353;28;20052;-77
2023/07/14 12:18:36;;;;;;;1999.90;999.90;;;32.40;26.10;;;;;;5104941;28;20040;-81
2023/07/14 12:21:14;;;;;;;1999.90;999.90;;;32.60;24.90;;;;;;5105349;28;20039;-76
2023/07/14 12:23:40;;;;;;;1999.90;999.90;;;33.20;23.90;;;;;;5100942;28;20516;-77
2023/07/14 12:26:14;;;;;;;1999.90;999.90;;;34.50;24.20;;;;;;5107229;28;20123;-77
2023/07/14 12:28:40;;;;;;;1999.90;999.90;;;33.10;24.40;;;;;;5103566;28;20205;-77
2023/07/14 12:31:13;;;;;;;1999.90;999.90;;;30.90;26.90;;;;;;5108000;28;20012;-77
2023/07/14 12:33:39;;;;;;;1999.90;999.90;;;30.70;28.90;;;;;;5101560;28;20078;-77
2023/07/14 12:36:11;;;;;;;1999.90;999.90;;;30.10;28.00;;;;;;5104089;28;20036;-77
2023/07/14 12:38:37;;;;;;;1999.90;999.90;;;29.00;29.90;;;;;;5101259;28;20497;-77